createdAt,value
2022-11-05T00:00:33.164Z,6.38
2022-11-05T00:03:19.170Z,6.35
2022-11-05T00:06:07.036Z,6.33
2022-11-05T00:08:53.037Z,6.34
2022-11-05T00:11:41.298Z,6.30
2022-11-05T00:14:26.898Z,6.30
2022-11-05T00:16:56.241Z,6.28
2022-11-05T00:19:24.239Z,6.30
2022-11-05T00:22:09.588Z,6.28
2022-11-05T00:24:55.231Z,6.30
2022-11-05T00:27:23.320Z,6.30
2022-11-05T00:29:51.440Z,6.33
2022-11-05T00:32:20.928Z,6.33
2022-11-05T00:34:48.984Z,6.34
2022-11-05T00:37:17.065Z,6.36
2022-11-05T00:39:45.158Z,6.34
2022-11-05T00:42:30.658Z,6.37
2022-11-05T00:45:04.548Z,6.40
2022-11-05T00:47:48.747Z,6.38
2022-11-05T00:50:16.830Z,6.44
2022-11-05T00:52:56.991Z,6.42
2022-11-05T00:55:26.700Z,6.40
2022-11-05T00:57:55.249Z,6.45
2022-11-05T01:00:24.479Z,6.45
2022-11-05T01:02:54.014Z,6.49
2022-11-05T01:05:22.187Z,6.49
2022-11-05T01:07:50.294Z,6.50
2022-11-05T01:10:18.532Z,6.52
2022-11-05T01:12:46.601Z,6.53
2022-11-05T01:15:16.104Z,6.53
2022-11-05T01:17:44.201Z,6.57
2022-11-05T01:20:13.854Z,6.57
2022-11-05T01:22:42.006Z,6.61
2022-11-05T01:25:11.209Z,6.60
2022-11-05T01:27:41.241Z,6.61
2022-11-05T01:30:10.489Z,6.65
2022-11-05T01:32:38.796Z,6.65
2022-11-05T01:35:09.303Z,6.66
2022-11-05T01:37:39.472Z,6.68
2022-11-05T01:40:11.505Z,6.70
2022-11-05T01:42:39.794Z,6.70
2022-11-05T01:45:14.956Z,6.74
2022-11-05T01:47:51.159Z,6.74
2022-11-05T01:50:28.486Z,6.78
2022-11-05T01:53:03.979Z,6.81
2022-11-05T01:55:36.833Z,6.80
2022-11-05T01:58:08.397Z,6.79
2022-11-05T02:00:37.751Z,6.83
2022-11-05T02:03:06.075Z,6.81
2022-11-05T02:05:35.793Z,6.83
2022-11-05T02:08:05.795Z,6.82
2022-11-05T02:10:34.223Z,6.83
2022-11-05T02:13:03.712Z,6.82
2022-11-05T02:15:41.125Z,6.84
2022-11-05T02:18:21.361Z,6.84
2022-11-05T02:21:00.416Z,6.86
2022-11-05T02:23:55.114Z,6.88
2022-11-05T02:27:06.985Z,6.91
2022-11-05T02:30:08.775Z,6.88
2022-11-05T02:32:54.781Z,6.92
2022-11-05T02:35:37.012Z,6.92
2022-11-05T02:38:10.068Z,6.91
2022-11-05T02:40:50.607Z,6.90
2022-11-05T02:43:33.548Z,6.90
2022-11-05T02:46:11.710Z,6.94
2022-11-05T02:48:47.601Z,6.93
2022-11-05T02:51:24.575Z,6.95
2022-11-05T02:53:59.428Z,6.94
2022-11-05T02:56:32.227Z,6.92
2022-11-05T02:59:00.220Z,6.92
2022-11-05T03:01:28.298Z,6.91
2022-11-05T03:04:00.569Z,6.90
2022-11-05T03:07:09.244Z,6.86
2022-11-05T03:10:11.640Z,6.85
2022-11-05T03:12:48.522Z,6.85
2022-11-05T03:15:26.881Z,6.83
2022-11-05T03:18:03.401Z,6.82
2022-11-05T03:20:38.875Z,6.80
2022-11-05T03:23:13.610Z,6.80
2022-11-05T03:25:47.274Z,6.76
2022-11-05T03:28:18.625Z,6.78
2022-11-05T03:30:49.214Z,6.78
2022-11-05T03:33:22.379Z,6.74
2022-11-05T03:35:55.077Z,6.79
2022-11-05T03:38:28.054Z,6.76
2022-11-05T03:40:59.791Z,6.75
2022-11-05T03:43:33.997Z,6.76
2022-11-05T03:46:06.297Z,6.76
2022-11-05T03:48:39.896Z,6.73
2022-11-05T03:51:15.450Z,6.71
2022-11-05T03:53:47.808Z,6.76
2022-11-05T03:56:21.718Z,6.73
2022-11-05T03:58:54.675Z,6.75
2022-11-05T04:01:26.506Z,6.71
2022-11-05T04:03:54.650Z,6.74
2022-11-05T04:06:41.852Z,6.72
2022-11-05T04:09:29.445Z,6.76
2022-11-05T04:12:14.790Z,6.76
2022-11-05T04:14:42.908Z,6.75
2022-11-05T04:17:10.093Z,6.74
2022-11-05T04:19:57.017Z,6.72
2022-11-05T04:22:45.807Z,6.74
2022-11-05T04:25:14.540Z,6.76
2022-11-05T04:27:42.654Z,6.74
2022-11-05T04:30:21.950Z,6.74
2022-11-05T04:33:02.272Z,6.77
2022-11-05T04:35:31.852Z,6.79
2022-11-05T04:38:01.363Z,6.79
2022-11-05T04:40:29.790Z,6.78
2022-11-05T04:42:58.531Z,6.83
2022-11-05T04:45:28.364Z,6.83
2022-11-05T04:47:56.385Z,6.83
2022-11-05T04:50:25.247Z,6.84
2022-11-05T04:52:53.312Z,6.83
2022-11-05T04:55:22.869Z,6.87
2022-11-05T04:57:51.712Z,6.91
2022-11-05T05:00:21.403Z,6.91
2022-11-05T05:02:49.981Z,6.93
2022-11-05T05:05:18.192Z,6.96
2022-11-05T05:07:46.334Z,6.99
2022-11-05T05:10:14.305Z,7.00
2022-11-05T05:12:43.771Z,7.01
2022-11-05T05:15:12.140Z,7.01
2022-11-05T05:17:40.155Z,7.01
2022-11-05T05:20:26.137Z,7.01
2022-11-05T05:22:54.690Z,7.03
2022-11-05T05:25:23.635Z,7.01
2022-11-05T05:27:53.061Z,7.02
2022-11-05T05:30:21.092Z,7.01
2022-11-05T05:32:49.068Z,7.03
2022-11-05T05:35:17.543Z,7.03
2022-11-05T05:37:45.597Z,7.05
2022-11-05T05:40:13.704Z,7.04
2022-11-05T05:42:43.413Z,7.08
2022-11-05T05:45:13.857Z,7.07
2022-11-05T05:47:42.936Z,7.12
2022-11-05T05:50:11.002Z,7.14
2022-11-05T05:52:39.097Z,7.17
2022-11-05T05:55:07.800Z,7.18
2022-11-05T05:57:36.153Z,7.22
2022-11-05T06:00:06.354Z,7.26
2022-11-05T06:02:41.730Z,7.27
2022-11-05T06:05:11.130Z,7.32
2022-11-05T06:07:39.279Z,7.33
2022-11-05T06:10:08.138Z,7.36
2022-11-05T06:12:36.154Z,7.37
2022-11-05T06:15:04.923Z,7.38
2022-11-05T06:17:34.246Z,7.41
2022-11-05T06:20:03.828Z,7.43
2022-11-05T06:22:32.361Z,7.45
2022-11-05T06:25:00.388Z,7.50
2022-11-05T06:27:29.650Z,7.52
2022-11-05T06:30:00.348Z,7.55
2022-11-05T06:32:28.692Z,7.58
2022-11-05T06:34:56.704Z,7.63
2022-11-05T06:37:27.793Z,7.70
2022-11-05T06:39:57.175Z,7.71
2022-11-05T06:42:25.558Z,7.76
2022-11-05T06:44:54.171Z,7.74
2022-11-05T06:47:22.432Z,7.76
2022-11-05T06:49:50.698Z,7.87
2022-11-05T06:52:19.332Z,7.89
2022-11-05T06:54:48.895Z,7.95
2022-11-05T06:57:16.924Z,7.96
2022-11-05T06:59:45.139Z,7.99
2022-11-05T07:02:14.521Z,8.04
2022-11-05T07:04:42.620Z,8.04
2022-11-05T07:07:11.055Z,8.09
2022-11-05T07:09:42.976Z,8.07
2022-11-05T07:12:12.477Z,8.09
2022-11-05T07:14:40.468Z,8.12
2022-11-05T07:17:08.604Z,8.12
2022-11-05T07:19:36.626Z,8.14
2022-11-05T07:22:04.693Z,8.20
2022-11-05T07:24:32.713Z,8.23
2022-11-05T07:27:00.690Z,8.20
2022-11-05T07:29:30.104Z,8.23
2022-11-05T07:31:58.484Z,8.19
2022-11-05T07:34:26.541Z,8.21
2022-11-05T07:36:54.560Z,8.26
2022-11-05T07:39:22.912Z,8.24
2022-11-05T07:41:53.245Z,8.26
2022-11-05T07:44:21.200Z,8.30
2022-11-05T07:46:50.766Z,8.32
2022-11-05T07:49:19.451Z,8.31
2022-11-05T07:51:47.590Z,8.30
2022-11-05T07:54:15.656Z,8.32
2022-11-05T07:56:43.696Z,8.36
2022-11-05T07:59:11.698Z,8.39
2022-11-05T08:01:40.429Z,8.47
2022-11-05T08:04:09.952Z,8.49
2022-11-05T08:06:38.056Z,8.53
2022-11-05T08:09:06.187Z,8.54
2022-11-05T08:11:35.834Z,8.57
2022-11-05T08:14:03.890Z,8.59
2022-11-05T08:16:32.021Z,8.56
2022-11-05T08:19:00.040Z,8.62
2022-11-05T08:21:29.435Z,8.62
2022-11-05T08:23:57.465Z,8.68
2022-11-05T08:26:25.544Z,8.74
2022-11-05T08:28:53.965Z,8.71
2022-11-05T08:31:22.032Z,8.71
2022-11-05T08:33:50.610Z,8.71
2022-11-05T08:36:18.636Z,8.76
2022-11-05T08:38:48.101Z,8.75
2022-11-05T08:41:16.152Z,8.79
2022-11-05T08:43:44.160Z,8.76
2022-11-05T08:46:12.208Z,8.77
2022-11-05T08:48:40.266Z,8.81
2022-11-05T08:51:08.347Z,8.88
2022-11-05T08:53:36.891Z,8.84
2022-11-05T08:56:06.972Z,8.83
2022-11-05T08:58:35.676Z,8.87
2022-11-05T09:01:05.855Z,8.91
2022-11-05T09:03:33.949Z,8.87
2022-11-05T09:06:02.130Z,8.88
2022-11-05T09:08:30.464Z,8.98
2022-11-05T09:10:58.677Z,9.00
2022-11-05T09:13:28.541Z,9.06
2022-11-05T09:15:59.018Z,9.06
2022-11-05T09:18:30.183Z,9.10
2022-11-05T09:20:58.832Z,9.14
2022-11-05T09:23:26.868Z,9.15
2022-11-05T09:25:55.018Z,9.20
2022-11-05T09:28:24.577Z,9.26
2022-11-05T09:30:54.358Z,9.28
2022-11-05T09:33:25.541Z,9.33
2022-11-05T09:36:00.651Z,9.39
2022-11-05T09:38:29.618Z,9.43
2022-11-05T09:41:00.928Z,9.50
2022-11-05T09:43:35.153Z,9.61
2022-11-05T09:46:12.743Z,9.61
2022-11-05T09:48:44.611Z,9.56
2022-11-05T09:51:23.406Z,9.66
2022-11-05T09:53:53.669Z,9.67
2022-11-05T09:56:26.223Z,9.69
2022-11-05T09:58:59.289Z,9.74
2022-11-05T10:01:34.356Z,9.79
2022-11-05T10:04:07.899Z,9.91
2022-11-05T10:06:49.634Z,9.98
2022-11-05T10:09:25.226Z,10.06
2022-11-05T10:11:58.578Z,10.12
2022-11-05T10:14:29.965Z,10.18
2022-11-05T10:17:02.463Z,10.30
2022-11-05T10:19:40.676Z,10.29
2022-11-05T10:22:12.909Z,10.34
2022-11-05T10:24:43.751Z,10.41
2022-11-05T10:27:18.340Z,10.46
2022-11-05T10:29:47.446Z,10.49
2022-11-05T10:32:24.915Z,10.53
2022-11-05T10:34:55.428Z,10.55
2022-11-05T10:37:25.893Z,10.57
2022-11-05T10:39:58.395Z,10.55
2022-11-05T10:42:41.210Z,10.66
2022-11-05T10:45:22.863Z,10.64
2022-11-05T10:48:04.029Z,10.68
2022-11-05T10:50:32.587Z,10.73
2022-11-05T10:53:03.899Z,10.77
2022-11-05T10:55:36.133Z,10.80
2022-11-05T10:58:19.381Z,10.85
2022-11-05T11:01:03.140Z,10.91
2022-11-05T11:03:40.451Z,10.91
2022-11-05T11:06:19.727Z,11.07
2022-11-05T11:08:49.850Z,11.15
2022-11-05T11:11:29.350Z,11.17
2022-11-05T11:14:06.249Z,11.26
2022-11-05T11:16:40.315Z,11.30
2022-11-05T11:19:28.994Z,11.31
2022-11-05T11:22:17.609Z,11.38
2022-11-05T11:24:48.172Z,11.45
2022-11-05T11:27:22.213Z,11.45
2022-11-05T11:29:56.763Z,11.47
2022-11-05T11:32:28.686Z,11.53
2022-11-05T11:34:58.841Z,11.53
2022-11-05T11:37:30.081Z,11.60
2022-11-05T11:40:03.139Z,11.59
2022-11-05T11:42:34.836Z,11.59
2022-11-05T11:45:15.489Z,11.60
2022-11-05T11:47:46.026Z,11.61
2022-11-05T11:50:38.768Z,11.63
2022-11-05T11:53:22.624Z,11.65
2022-11-05T11:56:03.862Z,11.73
2022-11-05T11:58:43.813Z,11.69
2022-11-05T12:01:44.848Z,11.72
2022-11-05T12:04:27.310Z,11.70
2022-11-05T12:07:10.360Z,11.75
2022-11-05T12:09:57.708Z,11.73
2022-11-05T12:12:33.250Z,11.75
2022-11-05T12:15:13.398Z,11.76
2022-11-05T12:17:51.630Z,11.79
2022-11-05T12:20:40.348Z,11.78
2022-11-05T12:23:33.238Z,11.78
2022-11-05T12:26:12.690Z,11.81
2022-11-05T12:29:17.721Z,11.78
2022-11-05T12:31:56.930Z,11.69
2022-11-05T12:34:41.321Z,11.73
2022-11-05T12:37:20.916Z,11.79
2022-11-05T12:40:10.915Z,11.76
2022-11-05T12:42:52.735Z,11.77
2022-11-05T12:45:36.189Z,11.86
2022-11-05T12:48:30.318Z,11.79
2022-11-05T12:51:09.956Z,11.80
2022-11-05T12:53:57.606Z,11.82
2022-11-05T12:56:34.480Z,11.84
2022-11-05T12:59:07.246Z,11.85
2022-11-05T13:01:40.457Z,11.75
2022-11-05T13:04:18.172Z,11.86
2022-11-05T13:06:50.948Z,11.90
2022-11-05T13:09:24.154Z,11.86
2022-11-05T13:11:58.401Z,11.85
2022-11-05T13:14:30.203Z,11.89
2022-11-05T13:17:01.899Z,11.94
2022-11-05T13:19:36.101Z,11.90
2022-11-05T13:22:14.257Z,11.97
2022-11-05T13:24:49.477Z,12.03
2022-11-05T13:27:42.724Z,12.00
2022-11-05T13:30:16.655Z,11.98
2022-11-05T13:32:48.301Z,12.01
2022-11-05T13:35:23.514Z,12.04
2022-11-05T13:38:15.719Z,12.05
2022-11-05T13:40:55.478Z,12.10
2022-11-05T13:43:43.612Z,12.09
2022-11-05T13:46:26.518Z,12.12
2022-11-05T13:49:20.102Z,12.05
2022-11-05T13:51:52.627Z,12.12
2022-11-05T13:55:00.145Z,12.15
2022-11-05T13:58:05.636Z,12.12
2022-11-05T14:00:43.316Z,12.15
2022-11-05T14:03:18.647Z,12.09
2022-11-05T14:05:55.439Z,12.08
2022-11-05T14:08:29.241Z,12.07
2022-11-05T14:11:05.361Z,12.04
2022-11-05T14:13:37.077Z,12.06
2022-11-05T14:16:10.392Z,12.07
2022-11-05T14:18:44.982Z,12.05
2022-11-05T14:21:48.375Z,12.05
2022-11-05T14:24:27.127Z,12.12
2022-11-05T14:27:32.549Z,12.13
2022-11-05T14:30:02.027Z,12.14
2022-11-05T14:32:50.093Z,12.12
2022-11-05T14:35:39.709Z,12.12
2022-11-05T14:38:21.259Z,12.11
2022-11-05T14:40:50.511Z,12.08
2022-11-05T14:43:23.517Z,12.16
2022-11-05T14:45:57.216Z,12.13
2022-11-05T14:48:37.585Z,12.13
2022-11-05T14:51:25.714Z,12.14
2022-11-05T14:54:01.074Z,12.17
2022-11-05T14:56:29.365Z,12.18
2022-11-05T14:59:45.455Z,12.19
2022-11-05T15:02:18.600Z,12.16
2022-11-05T15:04:49.393Z,12.27
2022-11-05T15:07:41.233Z,12.25
2022-11-05T15:10:15.449Z,12.26
2022-11-05T15:12:46.894Z,12.31
2022-11-05T15:15:22.548Z,12.24
2022-11-05T15:18:01.366Z,12.32
2022-11-05T15:20:40.226Z,12.25
2022-11-05T15:23:15.754Z,12.29
2022-11-05T15:25:53.352Z,12.32
2022-11-05T15:28:31.683Z,12.34
2022-11-05T15:31:03.062Z,12.33
2022-11-05T15:33:32.755Z,12.38
2022-11-05T15:36:13.089Z,12.37
2022-11-05T15:38:56.642Z,12.40
2022-11-05T15:41:34.626Z,12.40
2022-11-05T15:44:03.152Z,12.41
2022-11-05T15:46:31.448Z,12.38
2022-11-05T15:49:03.183Z,12.44
2022-11-05T15:51:32.947Z,12.41
2022-11-05T15:54:31.954Z,12.44
2022-11-05T15:56:54.225Z,12.47
2022-11-05T15:59:26.512Z,12.45
2022-11-05T16:01:57.977Z,12.39
2022-11-05T16:04:28.891Z,12.36
2022-11-05T16:07:01.471Z,12.41
2022-11-05T16:09:31.720Z,12.46
2022-11-05T16:12:28.556Z,12.44
2022-11-05T16:15:04.448Z,12.43
2022-11-05T16:17:46.254Z,12.48
2022-11-05T16:20:23.729Z,12.46
2022-11-05T16:22:56.305Z,12.42
2022-11-05T16:25:31.987Z,12.42
2022-11-05T16:28:01.952Z,12.49
2022-11-05T16:30:30.635Z,12.48
2022-11-05T16:33:06.189Z,12.46
2022-11-05T16:35:34.806Z,12.40
2022-11-05T16:38:04.699Z,12.44
2022-11-05T16:40:32.812Z,12.48
2022-11-05T16:43:16.265Z,12.41
2022-11-05T16:45:44.414Z,12.41
2022-11-05T16:48:13.219Z,12.42
2022-11-05T16:50:42.244Z,12.40
2022-11-05T16:53:12.271Z,12.41
2022-11-05T16:55:43.629Z,12.50
2022-11-05T16:58:20.859Z,12.47
2022-11-05T17:00:50.257Z,12.42
2022-11-05T17:03:19.070Z,12.48
2022-11-05T17:05:47.848Z,12.44
2022-11-05T17:08:17.275Z,12.44
2022-11-05T17:10:45.855Z,12.49
2022-11-05T17:13:16.189Z,12.46
2022-11-05T17:15:46.446Z,12.42
2022-11-05T17:18:18.614Z,12.42
2022-11-05T17:20:49.412Z,12.44
2022-11-05T17:23:21.198Z,12.48
2022-11-05T17:25:51.826Z,12.47
2022-11-05T17:28:20.580Z,12.48
2022-11-05T17:30:53.022Z,12.44
2022-11-05T17:33:22.803Z,12.47
2022-11-05T17:35:52.142Z,12.48
2022-11-05T17:38:22.962Z,12.50
2022-11-05T17:40:51.600Z,12.47
2022-11-05T17:43:21.257Z,12.52
2022-11-05T17:45:51.959Z,12.47
2022-11-05T17:48:23.663Z,12.51
2022-11-05T17:50:52.178Z,12.54
2022-11-05T17:53:21.903Z,12.56
2022-11-05T17:55:50.233Z,12.55
2022-11-05T17:58:18.711Z,12.55
2022-11-05T18:00:48.874Z,12.54
2022-11-05T18:03:17.421Z,12.63
2022-11-05T18:05:48.299Z,12.60
2022-11-05T18:08:16.528Z,12.61
2022-11-05T18:10:46.350Z,12.62
2022-11-05T18:13:14.818Z,12.73
2022-11-05T18:15:43.705Z,12.67
2022-11-05T18:18:12.938Z,12.68
2022-11-05T18:20:43.241Z,12.66
2022-11-05T18:23:11.982Z,12.64
2022-11-05T18:25:41.999Z,12.67
2022-11-05T18:28:14.172Z,12.67
2022-11-05T18:30:42.991Z,12.72
2022-11-05T18:33:11.916Z,12.71
2022-11-05T18:35:44.303Z,12.67
2022-11-05T18:38:13.141Z,12.71
2022-11-05T18:40:41.518Z,12.67
2022-11-05T18:43:14.210Z,12.69
2022-11-05T18:45:42.797Z,12.74
2022-11-05T18:48:12.248Z,12.82
2022-11-05T18:50:41.355Z,12.74
2022-11-05T18:53:09.625Z,12.74
2022-11-05T18:55:39.883Z,12.81
2022-11-05T18:58:08.046Z,12.76
2022-11-05T19:00:40.111Z,12.77
2022-11-05T19:03:09.668Z,12.77
2022-11-05T19:05:37.978Z,12.82
2022-11-05T19:08:06.222Z,12.82
2022-11-05T19:10:34.422Z,12.85
2022-11-05T19:13:02.543Z,12.88
2022-11-05T19:15:30.834Z,12.84
2022-11-05T19:18:00.464Z,12.89
2022-11-05T19:20:31.338Z,12.81
2022-11-05T19:23:03.277Z,12.84
2022-11-05T19:25:31.327Z,12.85
2022-11-05T19:28:01.867Z,12.82
2022-11-05T19:30:30.280Z,12.82
2022-11-05T19:32:58.619Z,12.93
2022-11-05T19:35:36.934Z,12.88
2022-11-05T19:38:08.350Z,12.86
2022-11-05T19:40:38.661Z,12.88
2022-11-05T19:43:06.998Z,12.94
2022-11-05T19:45:50.583Z,12.92
2022-11-05T19:48:20.336Z,12.89
2022-11-05T19:50:50.223Z,12.97
2022-11-05T19:53:18.710Z,12.95
2022-11-05T19:55:48.054Z,13.00
2022-11-05T19:58:16.502Z,13.03
2022-11-05T20:00:45.129Z,13.03
2022-11-05T20:03:13.573Z,12.99
2022-11-05T20:05:42.026Z,13.07
2022-11-05T20:08:12.031Z,13.08
2022-11-05T20:10:40.391Z,13.05
2022-11-05T20:13:08.672Z,13.07
2022-11-05T20:15:39.330Z,13.11
2022-11-05T20:18:08.446Z,13.12
2022-11-05T20:20:37.007Z,13.16
2022-11-05T20:23:05.131Z,13.15
2022-11-05T20:25:36.970Z,13.16
2022-11-05T20:28:07.022Z,13.18
2022-11-05T20:30:35.818Z,13.19
2022-11-05T20:33:04.026Z,13.18
2022-11-05T20:35:32.316Z,13.17
2022-11-05T20:38:00.536Z,13.16
2022-11-05T20:40:28.603Z,13.20
2022-11-05T20:43:01.309Z,13.26
2022-11-05T20:45:29.527Z,13.23
2022-11-05T20:47:57.770Z,13.26
2022-11-05T20:50:25.750Z,13.28
2022-11-05T20:52:53.839Z,13.26
2022-11-05T20:55:24.854Z,13.32
2022-11-05T20:57:52.924Z,13.30
2022-11-05T21:00:23.085Z,13.30
2022-11-05T21:02:54.570Z,13.32
2022-11-05T21:05:59.748Z,13.40
2022-11-05T21:08:30.543Z,13.35
2022-11-05T21:10:59.092Z,13.32
2022-11-05T21:13:27.910Z,13.38
2022-11-05T21:15:59.457Z,13.38
2022-11-05T21:18:30.454Z,13.38
2022-11-05T21:20:59.819Z,13.38
2022-11-05T21:23:28.848Z,13.37
2022-11-05T21:25:57.118Z,13.46
2022-11-05T21:28:25.632Z,13.43
2022-11-05T21:30:53.825Z,13.44
2022-11-05T21:33:23.331Z,13.39
2022-11-05T21:35:51.542Z,13.50
2022-11-05T21:38:19.663Z,13.49
2022-11-05T21:40:48.381Z,13.52
2022-11-05T21:43:16.843Z,13.52
2022-11-05T21:45:46.235Z,13.53
2022-11-05T21:48:15.534Z,13.56
2022-11-05T21:51:02.999Z,13.55
2022-11-05T21:53:48.664Z,13.62
2022-11-05T21:56:40.593Z,13.59
2022-11-05T21:59:30.324Z,13.58
2022-11-05T22:02:04.761Z,13.57
2022-11-05T22:04:35.582Z,13.55
2022-11-05T22:07:06.037Z,13.56
2022-11-05T22:09:34.228Z,13.58
2022-11-05T22:12:03.158Z,13.62
2022-11-05T22:14:31.308Z,13.63
2022-11-05T22:16:59.805Z,13.57
2022-11-05T22:19:28.250Z,13.56
2022-11-05T22:21:56.517Z,13.59
2022-11-05T22:24:28.025Z,13.60
2022-11-05T22:26:56.138Z,13.60
2022-11-05T22:29:24.443Z,13.60
2022-11-05T22:31:52.850Z,13.58
2022-11-05T22:34:21.674Z,13.55
2022-11-05T22:36:50.097Z,13.59
2022-11-05T22:39:19.089Z,13.59
2022-11-05T22:41:49.201Z,13.61
2022-11-05T22:44:17.798Z,13.59
2022-11-05T22:46:46.121Z,13.59
2022-11-05T22:49:14.437Z,13.56
2022-11-05T22:51:42.864Z,13.56
2022-11-05T22:54:11.788Z,13.57
2022-11-05T22:56:42.104Z,13.52
2022-11-05T22:59:13.457Z,13.55
2022-11-05T23:01:42.222Z,13.59
2022-11-05T23:04:11.102Z,13.55
2022-11-05T23:06:56.648Z,13.57
2022-11-05T23:09:46.190Z,13.57
2022-11-05T23:12:23.140Z,13.64
2022-11-05T23:14:53.430Z,13.58
2022-11-05T23:17:39.311Z,13.56
2022-11-05T23:20:32.466Z,13.54
2022-11-05T23:23:18.000Z,13.52
2022-11-05T23:25:46.553Z,13.58
2022-11-05T23:28:15.530Z,13.60
2022-11-05T23:30:59.934Z,13.61
2022-11-05T23:33:28.869Z,13.56
2022-11-05T23:36:14.342Z,13.57
2022-11-05T23:38:42.459Z,13.52
2022-11-05T23:41:27.916Z,13.55
2022-11-05T23:44:13.687Z,13.52
2022-11-05T23:47:00.529Z,13.53
2022-11-05T23:49:28.659Z,13.57
2022-11-05T23:51:56.663Z,13.52
2022-11-05T23:54:25.166Z,13.55
2022-11-05T23:56:53.188Z,13.58
2022-11-05T23:59:21.393Z,13.60
